Time;durP1;ratioP1;P1;durP2;ratioP2;P2;SDS_P1;SDS_P2;PMS_P1;PMS_P2;Temp;Humidity;BMP_temperature;BMP_pressure;BME280_temperature;BME280_humidity;BME280_pressure;Samples;Min_cycle;Max_cycle;Signal;HPM_P1;HPM_P2
2024/03/22 00:01:11;;;;;;;2.42;0.90;;;11.90;98.10;;;;;;5056542;28;20451;-76
2024/03/22 00:03:36;;;;;;;1.10;0.50;;;12.00;97.80;;;;;;5056302;28;20151;-76
2024/03/22 00:06:02;;;;;;;2.38;0.80;;;11.80;98.10;;;;;;5052772;28;20045;-77
2024/03/22 00:08:28;;;;;;;1.05;0.50;;;11.70;98.20;;;;;;5055089;28;20405;-76
2024/03/22 00:10:53;;;;;;;1.17;0.50;;;11.80;97.90;;;;;;5055745;28;20036;-76
2024/03/22 00:13:19;;;;;;;1.75;0.60;;;12.20;97.60;;;;;;5055501;28;20049;-76
2024/03/22 00:15:45;;;;;;;1.80;0.70;;;12.30;97.50;;;;;;5055981;28;20024;-76
2024/03/22 00:18:11;;;;;;;0.75;0.40;;;12.20;97.60;;;;;;5059871;28;21061;-76
2024/03/22 00:20:36;;;;;;;1.08;0.50;;;12.10;97.60;;;;;;5060156;28;20031;-76
2024/03/22 00:23:02;;;;;;;0.63;0.43;;;12.00;97.60;;;;;;5060984;28;20059;-76
2024/03/22 00:25:28;;;;;;;0.65;0.43;;;11.80;97.90;;;;;;5061157;28;20105;-76
2024/03/22 00:27:55;;;;;;;0.40;0.40;;;11.60;98.00;;;;;;5058927;28;20048;-76
2024/03/22 00:30:20;;;;;;;1.55;0.55;;;11.60;98.10;;;;;;5061205;28;20364;-76
2024/03/22 00:32:47;;;;;;;0.85;0.43;;;11.60;98.00;;;;;;5061201;28;20043;-76
2024/03/22 00:35:12;;;;;;;1.95;0.82;;;11.60;97.90;;;;;;5060217;28;20063;-76
2024/03/22 00:37:38;;;;;;;0.90;0.50;;;11.60;98.20;;;;;;5057713;28;20068;-76
2024/03/22 00:40:04;;;;;;;1.20;0.52;;;11.70;98.00;;;;;;5059875;28;20033;-76
2024/03/22 00:42:30;;;;;;;1.25;0.60;;;11.60;98.00;;;;;;5060162;28;20085;-76
2024/03/22 00:44:57;;;;;;;1.02;0.38;;;11.50;98.00;;;;;;5058175;28;20052;-76
2024/03/22 00:47:23;;;;;;;2.38;0.63;;;11.40;98.20;;;;;;5058730;28;21002;-76
2024/03/22 00:49:48;;;;;;;1.33;0.40;;;11.20;98.00;;;;;;5059147;28;20033;-76
2024/03/22 00:52:14;;;;;;;1.13;0.35;;;11.40;98.00;;;;;;5060437;28;20036;-76
2024/03/22 00:54:40;;;;;;;3.75;0.50;;;11.50;98.00;;;;;;5058933;28;20032;-76
2024/03/22 00:57:06;;;;;;;1.25;0.35;;;11.20;98.00;;;;;;5059046;28;20124;-76
2024/03/22 00:59:32;;;;;;;1.33;0.43;;;11.00;98.50;;;;;;5059494;28;20029;-76
2024/03/22 01:01:58;;;;;;;1.42;0.57;;;10.90;98.60;;;;;;5059842;28;20028;-77
2024/03/22 01:04:24;;;;;;;1.00;0.40;;;10.90;98.50;;;;;;5060115;28;20391;-76
2024/03/22 01:06:49;;;;;;;1.85;0.35;;;11.10;98.40;;;;;;5056706;28;21046;-76
2024/03/22 01:09:15;;;;;;;0.70;0.43;;;11.30;98.10;;;;;;5059188;28;20040;-76
2024/03/22 01:11:40;;;;;;;1.55;0.73;;;11.50;97.80;;;;;;5058650;28;20111;-76
2024/03/22 01:14:06;;;;;;;0.90;0.35;;;11.50;97.90;;;;;;5059810;28;20028;-76
2024/03/22 01:16:32;;;;;;;0.85;0.45;;;11.30;98.10;;;;;;5057976;28;20086;-76
2024/03/22 01:18:57;;;;;;;0.60;0.50;;;11.30;97.90;;;;;;5057067;28;20052;-76
2024/03/22 01:21:25;;;;;;;1.50;0.57;;;11.10;98.00;;;;;;5057698;28;20062;-77
2024/03/22 01:23:54;;;;;;;1.10;0.55;;;11.30;97.80;;;;;;5059771;28;20028;-76
2024/03/22 01:26:20;;;;;;;1.55;0.55;;;11.50;97.40;;;;;;5055893;28;20414;-76
2024/03/22 01:28:46;;;;;;;2.53;0.60;;;11.60;97.40;;;;;;5057533;28;20036;-76
2024/03/22 01:31:12;;;;;;;2.70;0.63;;;11.40;97.60;;;;;;5059557;28;20029;-76
2024/03/22 01:33:37;;;;;;;0.52;0.38;;;11.30;97.70;;;;;;5059182;28;20522;-76
2024/03/22 01:36:05;;;;;;;0.98;0.55;;;11.20;97.80;;;;;;5056689;28;20090;-76
2024/03/22 01:38:31;;;;;;;0.50;0.30;;;11.70;97.70;;;;;;5058632;28;20119;-76
2024/03/22 01:40:56;;;;;;;1.27;0.50;;;11.70;97.40;;;;;;5059626;28;20186;-76
2024/03/22 01:43:22;;;;;;;2.13;0.70;;;11.60;97.60;;;;;;5059320;28;20035;-75
2024/03/22 01:45:48;;;;;;;1.00;0.30;;;11.60;97.50;;;;;;5057276;28;20044;-76
2024/03/22 01:48:14;;;;;;;0.75;0.30;;;11.60;97.60;;;;;;5057700;28;20402;-76
2024/03/22 01:50:40;;;;;;;1.95;0.57;;;11.50;97.60;;;;;;5058421;28;20029;-76
2024/03/22 01:53:05;;;;;;;0.50;0.30;;;11.50;97.90;;;;;;5059897;28;20047;-76
2024/03/22 01:55:31;;;;;;;1.52;0.73;;;11.50;97.70;;;;;;5058806;28;20032;-76
2024/03/22 01:57:57;;;;;;;2.17;0.43;;;11.60;97.40;;;;;;5057313;28;20082;-76
2024/03/22 02:00:22;;;;;;;0.65;0.30;;;11.50;97.30;;;;;;5058561;28;20173;-76
2024/03/22 02:02:48;;;;;;;1.02;0.40;;;11.50;97.40;;;;;;5057621;28;20111;-76
2024/03/22 02:05:15;;;;;;;1.73;0.82;;;11.30;98.30;;;;;;5059500;28;20043;-76
2024/03/22 02:07:42;;;;;;;2.47;0.80;;;11.00;99.00;;;;;;5056697;28;20509;-76
2024/03/22 02:10:10;;;;;;;1.00;0.43;;;11.00;99.10;;;;;;5058387;28;20129;-76
2024/03/22 02:12:37;;;;;;;1.40;0.50;;;10.80;98.40;;;;;;5058052;28;21438;-77
2024/03/22 02:15:03;;;;;;;0.75;0.40;;;11.30;97.80;;;;;;5059067;28;20040;-76
2024/03/22 02:17:28;;;;;;;1.55;0.50;;;11.10;97.80;;;;;;5057200;28;20052;-76
2024/03/22 02:19:54;;;;;;;0.85;0.35;;;10.90;98.00;;;;;;5057185;28;20095;-76
2024/03/22 02:22:19;;;;;;;1.95;0.60;;;10.90;98.50;;;;;;5058114;28;20402;-76
2024/03/22 02:24:45;;;;;;;1.88;1.05;;;10.90;98.90;;;;;;5057984;28;20066;-76
2024/03/22 02:27:10;;;;;;;3.55;1.50;;;10.90;99.10;;;;;;5056033;28;20036;-76
2024/03/22 02:29:36;;;;;;;2.25;1.08;;;10.70;99.30;;;;;;5058139;28;20063;-76
2024/03/22 02:32:03;;;;;;;2.63;0.90;;;10.50;99.60;;;;;;5059552;28;20463;-76
2024/03/22 02:34:29;;;;;;;1.42;0.60;;;10.40;99.60;;;;;;5058899;28;20545;-76
2024/03/22 02:36:54;;;;;;;3.15;0.95;;;10.30;99.30;;;;;;5057011;28;20037;-75
2024/03/22 02:39:20;;;;;;;1.00;0.55;;;10.30;99.60;;;;;;5057334;28;20031;-76
2024/03/22 02:41:45;;;;;;;2.13;0.82;;;10.20;99.90;;;;;;5058808;28;20044;-76
2024/03/22 02:44:11;;;;;;;1.05;0.68;;;10.30;99.80;;;;;;5058742;28;20075;-76
2024/03/22 02:46:36;;;;;;;1.88;0.70;;;10.20;99.90;;;;;;5058073;28;20048;-76
2024/03/22 02:49:02;;;;;;;2.25;0.73;;;10.10;99.90;;;;;;5058147;28;20066;-76
2024/03/22 02:51:27;;;;;;;1.88;0.90;;;10.00;99.90;;;;;;5058091;28;20391;-76
2024/03/22 02:53:53;;;;;;;1.70;0.60;;;10.00;99.90;;;;;;5057008;28;20072;-77
2024/03/22 02:56:18;;;;;;;3.80;1.10;;;9.90;99.90;;;;;;5056138;28;20036;-76
2024/03/22 02:58:44;;;;;;;1.63;0.80;;;9.80;99.90;;;;;;5057592;28;20033;-77
2024/03/22 03:01:10;;;;;;;2.13;0.85;;;9.90;99.90;;;;;;5058836;28;20056;-76
2024/03/22 03:03:35;;;;;;;1.95;0.73;;;10.00;99.90;;;;;;5057184;28;20039;-76
2024/03/22 03:06:01;;;;;;;1.08;0.60;;;10.20;99.90;;;;;;5058377;28;20046;-76
2024/03/22 03:08:26;;;;;;;3.78;0.90;;;10.40;99.90;;;;;;5057520;28;20033;-75
2024/03/22 03:10:53;;;;;;;2.92;1.50;;;10.30;99.90;;;;;;5056874;28;20047;-76
2024/03/22 03:13:18;;;;;;;1.60;0.70;;;10.40;99.90;;;;;;5056564;28;21224;-76
2024/03/22 03:15:44;;;;;;;4.07;0.77;;;10.30;99.90;;;;;;5058448;28;20261;-76
2024/03/22 03:18:09;;;;;;;2.00;0.75;;;10.30;99.90;;;;;;5056952;28;20402;-77
2024/03/22 03:20:35;;;;;;;1.75;0.73;;;10.30;99.90;;;;;;5058686;28;20063;-75
2024/03/22 03:23:01;;;;;;;4.47;0.95;;;10.20;99.90;;;;;;5059318;28;20462;-76
2024/03/22 03:25:27;;;;;;;1.48;0.80;;;10.10;99.90;;;;;;5060743;28;20458;-76
2024/03/22 03:27:52;;;;;;;1.25;0.60;;;10.20;99.90;;;;;;5060114;28;20032;-76
2024/03/22 03:30:18;;;;;;;4.53;1.95;;;10.10;99.90;;;;;;5062065;28;20037;-76
2024/03/22 03:32:43;;;;;;;2.55;1.02;;;10.00;99.90;;;;;;5060120;28;20968;-76
2024/03/22 03:35:09;;;;;;;3.17;0.90;;;10.20;99.90;;;;;;5061184;28;20037;-76
2024/03/22 03:37:34;;;;;;;1.95;0.85;;;10.20;99.90;;;;;;5061780;28;20074;-75
2024/03/22 03:40:00;;;;;;;1.38;0.65;;;10.00;99.90;;;;;;5061168;28;20047;-76
2024/03/22 03:42:26;;;;;;;2.38;0.75;;;10.10;99.90;;;;;;5061050;28;20544;-75
2024/03/22 03:44:52;;;;;;;1.77;0.98;;;10.20;99.90;;;;;;5060203;28;20059;-76
2024/03/22 03:47:17;;;;;;;2.20;0.98;;;10.20;99.90;;;;;;5059451;28;20040;-77
2024/03/22 03:49:45;;;;;;;2.47;0.95;;;10.20;99.90;;;;;;5060641;28;20067;-76
2024/03/22 03:52:11;;;;;;;2.20;0.85;;;10.20;99.90;;;;;;5061443;28;20086;-76
2024/03/22 03:54:36;;;;;;;2.40;0.88;;;10.20;99.90;;;;;;5059801;28;20044;-76
2024/03/22 03:57:02;;;;;;;2.08;0.88;;;10.00;99.90;;;;;;5061177;28;20037;-76
2024/03/22 03:59:28;;;;;;;5.47;1.40;;;10.00;99.90;;;;;;5060928;28;20024;-76
2024/03/22 04:01:54;;;;;;;2.30;1.05;;;9.80;99.90;;;;;;5059276;28;20449;-76
2024/03/22 04:04:19;;;;;;;3.50;0.80;;;9.70;99.90;;;;;;5053105;28;20056;-76
2024/03/22 04:06:45;;;;;;;2.00;0.85;;;9.70;99.90;;;;;;5055378;28;20576;-76
2024/03/22 04:09:11;;;;;;;2.60;0.98;;;9.60;99.90;;;;;;5054116;28;20029;-76
2024/03/22 04:11:37;;;;;;;2.30;0.80;;;9.50;99.90;;;;;;5056134;28;20037;-77
2024/03/22 04:14:03;;;;;;;3.63;0.98;;;9.50;99.90;;;;;;5053043;28;20031;-76
2024/03/22 04:16:28;;;;;;;2.20;0.90;;;9.50;99.90;;;;;;5054543;28;20056;-76
2024/03/22 04:18:54;;;;;;;1.75;0.88;;;9.40;99.90;;;;;;5051504;28;20040;-76
2024/03/22 04:21:20;;;;;;;3.95;1.00;;;9.50;99.90;;;;;;5053633;28;20044;-76
2024/03/22 04:23:45;;;;;;;3.90;0.90;;;9.60;99.90;;;;;;5053035;28;20062;-76
2024/03/22 04:26:12;;;;;;;2.25;0.60;;;9.80;99.90;;;;;;5056446;28;20040;-76
2024/03/22 04:28:37;;;;;;;1.85;0.70;;;9.90;99.90;;;;;;5056762;28;20032;-76
2024/03/22 04:31:05;;;;;;;1.15;0.47;;;9.90;99.90;;;;;;5055400;28;20036;-76
2024/03/22 04:33:32;;;;;;;1.73;1.02;;;10.00;99.90;;;;;;5055989;28;20458;-75
2024/03/22 04:35:59;;;;;;;1.55;0.57;;;9.80;99.90;;;;;;5055532;28;20046;-75
2024/03/22 04:38:25;;;;;;;2.78;1.13;;;9.80;99.90;;;;;;5056228;28;20116;-75
2024/03/22 04:40:51;;;;;;;2.25;1.00;;;9.50;99.90;;;;;;5053314;28;20394;-75
2024/03/22 04:43:17;;;;;;;2.03;1.05;;;9.40;99.90;;;;;;5052343;28;20048;-74
2024/03/22 04:45:43;;;;;;;1.08;0.60;;;9.40;99.90;;;;;;5053413;28;20249;-75
2024/03/22 04:48:09;;;;;;;1.95;0.90;;;9.40;99.90;;;;;;5053877;28;20075;-75
2024/03/22 04:50:35;;;;;;;2.47;0.70;;;9.40;99.90;;;;;;5052406;28;20437;-75
2024/03/22 04:53:01;;;;;;;1.25;0.60;;;9.30;99.90;;;;;;5052065;28;20032;-75
2024/03/22 04:55:26;;;;;;;1.92;0.55;;;9.30;99.90;;;;;;5051352;28;20036;-75
2024/03/22 04:57:52;;;;;;;3.45;0.73;;;9.10;99.90;;;;;;5052550;28;20036;-75
2024/03/22 05:00:18;;;;;;;1.27;0.60;;;9.30;99.90;;;;;;5056170;28;21433;-74
2024/03/22 05:02:44;;;;;;;2.45;1.00;;;9.30;99.90;;;;;;5054014;28;20037;-75
2024/03/22 05:05:09;;;;;;;1.63;0.68;;;9.30;99.90;;;;;;5054912;28;20032;-75
2024/03/22 05:07:35;;;;;;;1.20;0.70;;;9.30;99.90;;;;;;5055962;28;20083;-74
2024/03/22 05:10:02;;;;;;;2.45;0.93;;;9.20;99.90;;;;;;5054513;28;20040;-75
2024/03/22 05:12:27;;;;;;;2.67;1.10;;;9.10;99.90;;;;;;5052567;28;20071;-75
2024/03/22 05:14:53;;;;;;;2.63;0.90;;;9.00;99.90;;;;;;5054022;28;20128;-75
2024/03/22 05:17:18;;;;;;;2.28;0.85;;;9.00;99.90;;;;;;5053529;28;20047;-74
2024/03/22 05:19:44;;;;;;;1.92;0.88;;;9.20;99.90;;;;;;5052270;28;20032;-75
2024/03/22 05:22:09;;;;;;;2.05;0.80;;;9.30;99.90;;;;;;5050210;28;21055;-75
2024/03/22 05:24:35;;;;;;;1.42;0.70;;;9.40;99.90;;;;;;5053775;28;20019;-75
2024/03/22 05:27:00;;;;;;;2.45;0.90;;;9.10;99.90;;;;;;5055010;28;20040;-75
2024/03/22 05:29:26;;;;;;;2.40;0.82;;;8.90;99.90;;;;;;5055107;28;20029;-77
2024/03/22 05:31:52;;;;;;;2.83;0.90;;;9.20;99.90;;;;;;5054576;28;20032;-77
2024/03/22 05:34:18;;;;;;;1.35;0.65;;;9.30;99.90;;;;;;5054056;28;20107;-76
2024/03/22 05:36:46;;;;;;;1.88;0.82;;;9.20;99.90;;;;;;5052741;28;20028;-77
2024/03/22 05:39:12;;;;;;;1.85;0.80;;;9.30;99.90;;;;;;5050109;28;20032;-77
2024/03/22 05:41:38;;;;;;;2.00;0.68;;;9.30;99.90;;;;;;5051432;28;20051;-77
2024/03/22 05:44:04;;;;;;;4.13;0.95;;;9.30;99.90;;;;;;5050048;28;20052;-77
2024/03/22 05:46:30;;;;;;;3.88;0.80;;;9.50;99.90;;;;;;5051979;28;20645;-77
2024/03/22 05:48:57;;;;;;;1.13;0.40;;;9.40;99.90;;;;;;5053220;28;20036;-77
2024/03/22 05:51:23;;;;;;;1.75;0.82;;;9.40;99.90;;;;;;5051970;28;20046;-77
2024/03/22 05:53:48;;;;;;;3.15;1.20;;;9.40;99.90;;;;;;5052110;28;20045;-77
2024/03/22 05:56:14;;;;;;;2.97;1.08;;;9.40;99.90;;;;;;5048825;28;20059;-78
2024/03/22 05:58:40;;;;;;;2.13;0.95;;;9.10;99.90;;;;;;5054577;28;20041;-77
2024/03/22 06:01:05;;;;;;;1.77;0.82;;;9.10;99.90;;;;;;5051669;28;20597;-76
2024/03/22 06:03:31;;;;;;;3.28;0.80;;;9.10;99.90;;;;;;5052963;28;20047;-77
2024/03/22 06:06:00;;;;;;;1.65;0.95;;;9.10;99.90;;;;;;5054491;28;20059;-77
2024/03/22 06:08:26;;;;;;;3.05;0.70;;;9.20;99.90;;;;;;5053607;28;20056;-76
2024/03/22 06:10:53;;;;;;;2.17;1.05;;;9.10;99.90;;;;;;5054083;28;20072;-77
2024/03/22 06:13:18;;;;;;;2.53;1.10;;;9.10;99.90;;;;;;5048270;28;20033;-77
2024/03/22 06:15:47;;;;;;;3.30;1.13;;;9.00;99.90;;;;;;5050218;28;20039;-77
2024/03/22 06:18:12;;;;;;;4.10;0.90;;;8.80;99.90;;;;;;5055637;28;20042;-75
2024/03/22 06:20:38;;;;;;;1.48;0.60;;;8.80;99.90;;;;;;5058661;28;20535;-77
2024/03/22 06:23:04;;;;;;;2.92;1.10;;;8.90;99.90;;;;;;5051657;28;20036;-77
2024/03/22 06:25:29;;;;;;;4.25;1.35;;;8.90;99.90;;;;;;5053268;28;20062;-76
2024/03/22 06:27:55;;;;;;;2.35;1.13;;;8.90;99.90;;;;;;5056138;28;20090;-77
2024/03/22 06:30:20;;;;;;;2.78;1.00;;;8.80;99.90;;;;;;5055281;28;20032;-77
2024/03/22 06:32:46;;;;;;;2.15;1.08;;;8.80;99.90;;;;;;5053388;28;20028;-77
2024/03/22 06:35:12;;;;;;;3.03;0.90;;;8.90;99.90;;;;;;5051660;28;20024;-77
2024/03/22 06:37:39;;;;;;;2.42;0.80;;;8.90;99.90;;;;;;5050277;28;20129;-77
2024/03/22 06:40:07;;;;;;;2.03;0.98;;;9.10;99.90;;;;;;5054103;28;20040;-77
2024/03/22 06:42:32;;;;;;;2.70;0.93;;;9.20;99.90;;;;;;5053450;28;20040;-77
2024/03/22 06:44:58;;;;;;;2.95;1.17;;;9.30;99.90;;;;;;5054868;28;20518;-77
2024/03/22 06:47:23;;;;;;;2.60;0.93;;;9.40;99.90;;;;;;5054285;28;20109;-77
2024/03/22 06:49:49;;;;;;;2.53;0.68;;;9.60;99.90;;;;;;5053633;28;20502;-77
2024/03/22 06:52:15;;;;;;;2.30;0.70;;;9.80;99.90;;;;;;5052780;28;20036;-77
2024/03/22 06:54:41;;;;;;;2.28;0.80;;;9.70;99.90;;;;;;5053636;28;20039;-76
2024/03/22 06:57:06;;;;;;;4.28;0.93;;;9.70;99.90;;;;;;5065473;28;20427;-78
2024/03/22 06:59:32;;;;;;;2.20;1.00;;;9.70;99.90;;;;;;5062023;28;20095;-76
2024/03/22 07:01:58;;;;;;;2.33;0.93;;;9.80;99.90;;;;;;5054057;28;20059;-79
2024/03/22 07:04:23;;;;;;;2.10;0.82;;;9.80;99.90;;;;;;5055350;28;20380;-81
2024/03/22 07:06:49;;;;;;;1.55;0.63;;;9.90;99.90;;;;;;5055309;28;20113;-77
2024/03/22 07:09:15;;;;;;;2.78;0.93;;;9.90;99.90;;;;;;5053524;28;20032;-76
2024/03/22 07:11:41;;;;;;;2.08;0.82;;;9.90;99.90;;;;;;5054678;28;20051;-76
2024/03/22 07:14:06;;;;;;;2.63;1.30;;;9.90;99.90;;;;;;5054856;28;20647;-76
2024/03/22 07:16:32;;;;;;;2.15;1.00;;;9.90;99.90;;;;;;5055280;28;20119;-76
2024/03/22 07:18:57;;;;;;;1.80;0.98;;;9.80;99.90;;;;;;5054903;28;20028;-77
2024/03/22 07:21:23;;;;;;;1.85;0.88;;;9.90;99.90;;;;;;5053075;28;20127;-76
2024/03/22 07:23:49;;;;;;;2.47;1.00;;;9.90;99.90;;;;;;5054496;28;20083;-77
2024/03/22 07:26:14;;;;;;;2.65;0.88;;;9.90;99.90;;;;;;5054375;28;20047;-78
2024/03/22 07:28:40;;;;;;;1.50;0.85;;;9.90;99.90;;;;;;5055111;28;20362;-77
2024/03/22 07:31:05;;;;;;;1.83;0.73;;;10.00;99.90;;;;;;5052714;28;20080;-77
2024/03/22 07:33:31;;;;;;;2.35;0.90;;;10.20;99.90;;;;;;5055095;28;20036;-76
2024/03/22 07:36:02;;;;;;;2.15;0.90;;;10.20;99.90;;;;;;5055772;28;20082;-77
2024/03/22 07:38:28;;;;;;;2.75;1.08;;;10.30;99.90;;;;;;5055423;28;20551;-76
2024/03/22 07:40:53;;;;;;;5.57;2.35;;;10.40;99.90;;;;;;5054168;28;20109;-77
2024/03/22 07:43:19;;;;;;;3.38;1.17;;;10.50;99.90;;;;;;5053833;28;20065;-76
2024/03/22 07:45:44;;;;;;;3.38;1.35;;;10.60;99.90;;;;;;5054937;28;20075;-76
2024/03/22 07:48:10;;;;;;;5.45;1.40;;;10.70;99.90;;;;;;5054938;28;21378;-76
2024/03/22 07:50:36;;;;;;;2.45;1.08;;;10.70;99.90;;;;;;5053427;28;20073;-76
2024/03/22 07:53:02;;;;;;;1.80;0.75;;;10.60;99.90;;;;;;5054559;28;20036;-78
2024/03/22 07:55:27;;;;;;;2.47;1.02;;;10.60;99.90;;;;;;5054968;28;20040;-76
2024/03/22 07:57:53;;;;;;;1.73;0.70;;;10.60;99.90;;;;;;5053614;28;20143;-77
2024/03/22 08:00:19;;;;;;;4.35;1.35;;;10.60;99.90;;;;;;5053509;28;20047;-80
2024/03/22 08:02:44;;;;;;;1.58;0.95;;;10.70;99.90;;;;;;5054779;28;20135;-80
2024/03/22 08:05:10;;;;;;;0.70;0.50;;;10.80;99.80;;;;;;5056023;28;20791;-82
2024/03/22 08:07:36;;;;;;;1.73;0.75;;;10.90;99.40;;;;;;5054258;28;20037;-81
2024/03/22 08:10:02;;;;;;;1.98;1.00;;;11.00;99.40;;;;;;5060485;28;20529;-80
2024/03/22 08:12:28;;;;;;;2.85;1.13;;;11.10;99.10;;;;;;5062603;28;20124;-78
2024/03/22 08:14:53;;;;;;;1.67;0.70;;;11.10;99.30;;;;;;5052341;28;20601;-79
2024/03/22 08:17:19;;;;;;;5.47;1.00;;;11.10;99.90;;;;;;5060008;28;20102;-79
2024/03/22 08:19:45;;;;;;;3.20;1.05;;;11.20;99.70;;;;;;5055546;28;20039;-78
2024/03/22 08:22:11;;;;;;;2.72;1.10;;;11.30;99.60;;;;;;5054913;28;20102;-78
2024/03/22 08:24:37;;;;;;;2.88;0.90;;;11.30;99.70;;;;;;5056370;28;20037;-77
2024/03/22 08:27:03;;;;;;;2.80;1.08;;;11.40;99.50;;;;;;5053350;28;20045;-78
2024/03/22 08:29:29;;;;;;;2.15;0.85;;;11.40;99.00;;;;;;5053586;28;20696;-77
2024/03/22 08:31:55;;;;;;;2.80;1.23;;;11.50;98.70;;;;;;5052795;28;20166;-77
2024/03/22 08:34:21;;;;;;;2.22;0.80;;;11.40;98.70;;;;;;5051922;28;20096;-76
2024/03/22 08:36:47;;;;;;;2.47;1.40;;;11.50;98.40;;;;;;5053122;28;20680;-79
2024/03/22 08:39:12;;;;;;;1.77;0.80;;;11.60;98.40;;;;;;5052786;28;20036;-79
2024/03/22 08:41:38;;;;;;;3.30;0.93;;;11.70;98.80;;;;;;5049376;28;20762;-80
2024/03/22 08:44:04;;;;;;;2.47;0.88;;;11.70;99.10;;;;;;5051289;28;20052;-79
2024/03/22 08:46:31;;;;;;;3.30;1.08;;;11.80;98.90;;;;;;5053310;28;20048;-80
2024/03/22 08:48:57;;;;;;;3.55;1.67;;;11.80;98.70;;;;;;5051842;28;20032;-79
2024/03/22 08:51:22;;;;;;;3.47;1.20;;;11.90;99.10;;;;;;5049693;28;20086;-79
2024/03/22 08:53:48;;;;;;;2.00;0.98;;;12.00;98.30;;;;;;5051283;28;20098;-83
2024/03/22 08:56:14;;;;;;;2.22;1.00;;;12.10;98.90;;;;;;5053520;28;20565;-78
2024/03/22 08:58:40;;;;;;;2.42;0.85;;;12.10;99.10;;;;;;5053683;28;20032;-78
2024/03/22 09:01:06;;;;;;;6.10;1.13;;;12.10;98.50;;;;;;5052078;28;20498;-79
2024/03/22 09:03:31;;;;;;;1.63;0.98;;;12.30;98.90;;;;;;5056182;28;20190;-79
2024/03/22 09:05:57;;;;;;;3.25;1.40;;;12.40;98.50;;;;;;5065526;28;20090;-78
2024/03/22 09:08:23;;;;;;;2.03;1.20;;;12.40;98.90;;;;;;5064319;28;20028;-79
2024/03/22 09:10:49;;;;;;;2.72;1.00;;;12.40;98.20;;;;;;5049139;28;20035;-83
2024/03/22 09:13:14;;;;;;;1.58;0.80;;;12.40;98.20;;;;;;5060421;28;20066;-83
2024/03/22 09:15:40;;;;;;;2.53;1.00;;;12.40;98.60;;;;;;5067049;28;20020;-83
2024/03/22 09:18:06;;;;;;;2.78;1.00;;;12.50;98.90;;;;;;5067376;28;20048;-81
2024/03/22 09:20:32;;;;;;;9.10;1.20;;;12.60;98.70;;;;;;5057002;28;20070;-79
2024/03/22 09:22:57;;;;;;;5.30;1.25;;;12.70;98.50;;;;;;5053975;28;20032;-79
2024/03/22 09:25:27;;;;;;;2.58;1.05;;;14.40;97.30;;;;;;5053756;28;20131;-79
2024/03/22 09:27:52;;;;;;;2.50;0.77;;;18.00;93.70;;;;;;5054266;28;20044;-80
2024/03/22 09:30:19;;;;;;;1.33;0.77;;;19.70;92.70;;;;;;5052413;28;20033;-79
2024/03/22 09:32:44;;;;;;;5.05;0.95;;;20.60;91.30;;;;;;5054439;28;20070;-80
2024/03/22 09:35:11;;;;;;;3.38;0.93;;;20.60;89.00;;;;;;5053518;28;20466;-80
2024/03/22 09:37:37;;;;;;;1.83;0.80;;;20.40;88.20;;;;;;5054005;28;20116;-80
2024/03/22 09:40:07;;;;;;;1.63;0.98;;;18.40;89.40;;;;;;5052475;28;20065;-80
2024/03/22 09:42:35;;;;;;;2.80;1.00;;;17.20;90.70;;;;;;5048403;28;20033;-80
2024/03/22 09:45:02;;;;;;;4.38;1.98;;;15.90;91.60;;;;;;5053776;28;20056;-80
2024/03/22 09:47:28;;;;;;;6.68;1.40;;;15.40;93.30;;;;;;5054835;28;20090;-79
2024/03/22 09:49:56;;;;;;;3.65;0.80;;;15.10;93.30;;;;;;5055232;28;20064;-79
2024/03/22 09:52:22;;;;;;;2.95;1.50;;;15.30;93.70;;;;;;5054383;28;20036;-80
2024/03/22 09:54:48;;;;;;;3.78;1.08;;;15.20;93.70;;;;;;5055247;28;20069;-80
2024/03/22 09:57:18;;;;;;;2.97;0.80;;;15.10;94.20;;;;;;5055041;28;20036;-80
2024/03/22 09:59:44;;;;;;;3.80;1.17;;;14.90;94.10;;;;;;5054892;28;20021;-80
2024/03/22 10:02:14;;;;;;;2.03;1.00;;;14.80;94.20;;;;;;5054371;28;20596;-80
2024/03/22 10:04:40;;;;;;;0.82;0.50;;;14.90;93.90;;;;;;5054832;28;20491;-79
2024/03/22 10:07:08;;;;;;;1.85;0.90;;;14.90;93.50;;;;;;5053832;28;20067;-80
2024/03/22 10:09:33;;;;;;;2.97;1.10;;;14.80;93.10;;;;;;5053764;28;20093;-80
2024/03/22 10:11:59;;;;;;;2.10;0.98;;;14.90;93.70;;;;;;5052244;28;20044;-80
2024/03/22 10:14:25;;;;;;;1.58;0.68;;;14.90;93.50;;;;;;5053331;28;20673;-80
2024/03/22 10:16:54;;;;;;;4.10;1.27;;;15.00;93.40;;;;;;5054118;28;20048;-80
2024/03/22 10:19:21;;;;;;;1.80;0.60;;;15.20;94.20;;;;;;5056330;28;20025;-81
2024/03/22 10:21:48;;;;;;;2.80;1.00;;;15.30;93.60;;;;;;5064876;28;20465;-80
2024/03/22 10:24:14;;;;;;;3.05;1.25;;;15.30;93.20;;;;;;5067632;28;20024;-80
2024/03/22 10:26:40;;;;;;;2.17;0.82;;;15.30;92.90;;;;;;5068765;28;20457;-81
2024/03/22 10:29:06;;;;;;;1.23;0.70;;;15.20;93.30;;;;;;5068453;28;20060;-80
2024/03/22 10:31:34;;;;;;;1.00;0.50;;;15.50;94.00;;;;;;5060970;28;20032;-80
2024/03/22 10:34:03;;;;;;;1.40;0.38;;;15.50;92.70;;;;;;5058330;28;20032;-81
2024/03/22 10:36:30;;;;;;;1.73;0.80;;;15.50;92.30;;;;;;5059659;28;20028;-80
2024/03/22 10:38:58;;;;;;;3.28;0.82;;;15.70;92.10;;;;;;5058615;28;20852;-80
2024/03/22 10:41:24;;;;;;;4.68;0.88;;;15.90;92.40;;;;;;5058910;28;20047;-80
2024/03/22 10:43:50;;;;;;;1.92;0.80;;;16.00;92.10;;;;;;5058914;28;20088;-80
2024/03/22 10:46:19;;;;;;;3.65;0.63;;;16.00;92.00;;;;;;5056684;28;20143;-80
2024/03/22 10:48:45;;;;;;;1.67;0.80;;;16.10;92.50;;;;;;5056793;28;20040;-80
2024/03/22 10:51:13;;;;;;;5.20;0.85;;;16.30;92.00;;;;;;5057214;28;20025;-79
2024/03/22 10:53:40;;;;;;;3.20;1.27;;;16.40;92.50;;;;;;5057125;28;20044;-80
2024/03/22 10:56:08;;;;;;;1.85;0.50;;;16.30;91.50;;;;;;5058334;28;20028;-80
2024/03/22 10:58:33;;;;;;;1.95;0.80;;;16.50;92.20;;;;;;5057358;28;20036;-79
2024/03/22 11:01:00;;;;;;;3.10;1.00;;;16.60;91.10;;;;;;5058291;28;20040;-80
2024/03/22 11:03:28;;;;;;;1.73;0.80;;;16.90;92.10;;;;;;5057874;28;20039;-78
2024/03/22 11:05:58;;;;;;;1.48;0.60;;;17.00;91.50;;;;;;5056942;28;20039;-78
2024/03/22 11:08:28;;;;;;;5.30;3.08;;;17.00;91.80;;;;;;5055573;28;20048;-79
2024/03/22 11:10:56;;;;;;;3.92;2.05;;;17.10;91.40;;;;;;5056114;28;20013;-79
2024/03/22 11:13:22;;;;;;;5.10;1.63;;;17.40;90.30;;;;;;5056853;28;20034;-79
2024/03/22 11:15:51;;;;;;;1.48;0.60;;;17.40;90.80;;;;;;5054657;28;20040;-80
2024/03/22 11:18:17;;;;;;;2.88;1.25;;;17.10;90.80;;;;;;5058536;28;20141;-79
2024/03/22 11:20:44;;;;;;;1.85;0.80;;;17.50;90.20;;;;;;5058420;28;20032;-80
2024/03/22 11:23:11;;;;;;;2.50;0.90;;;17.30;90.00;;;;;;5057524;28;20025;-79
2024/03/22 11:25:36;;;;;;;1.95;0.93;;;17.40;89.50;;;;;;5056866;28;20032;-79
2024/03/22 11:28:02;;;;;;;1.80;0.70;;;17.50;90.30;;;;;;5057988;28;20059;-79
2024/03/22 11:30:29;;;;;;;3.10;0.95;;;17.50;90.30;;;;;;5058134;28;20166;-79
2024/03/22 11:32:55;;;;;;;10.25;3.13;;;17.70;90.90;;;;;;5058423;28;20032;-79
2024/03/22 11:35:22;;;;;;;10.13;4.63;;;18.00;89.70;;;;;;5056555;28;20462;-79
2024/03/22 11:37:49;;;;;;;12.75;6.05;;;18.00;88.30;;;;;;5049190;28;20561;-79
2024/03/22 11:40:14;;;;;;;8.82;3.60;;;18.00;88.80;;;;;;5030200;28;20075;-79
2024/03/22 11:42:43;;;;;;;4.63;2.05;;;18.10;90.20;;;;;;5045718;28;20064;-79
2024/03/22 11:45:11;;;;;;;3.20;1.30;;;17.90;88.00;;;;;;5049404;28;20404;-79
2024/03/22 11:47:37;;;;;;;10.35;3.97;;;17.80;87.50;;;;;;5053575;28;20455;-79
2024/03/22 11:50:03;;;;;;;4.05;2.30;;;18.20;88.90;;;;;;5057656;28;20035;-79
2024/03/22 11:52:29;;;;;;;3.17;1.30;;;18.30;87.70;;;;;;5057067;28;20478;-79
2024/03/22 11:54:55;;;;;;;9.75;5.55;;;18.20;90.00;;;;;;5055542;28;20024;-79
2024/03/22 11:57:21;;;;;;;11.38;5.38;;;18.20;88.50;;;;;;5057003;28;20036;-79
2024/03/22 11:59:47;;;;;;;11.10;5.72;;;18.20;90.20;;;;;;5057683;28;20668;-78
2024/03/22 12:02:13;;;;;;;7.65;3.38;;;18.20;87.10;;;;;;5057575;28;20037;-80
2024/03/22 12:04:48;;;;;;;8.10;2.83;;;18.30;88.90;;;;;;5057490;28;20040;-79
2024/03/22 12:07:14;;;;;;;15.00;6.70;;;18.40;88.00;;;;;;5057280;28;20114;-81
2024/03/22 12:09:41;;;;;;;12.25;4.82;;;18.50;85.90;;;;;;5057864;28;20068;-82
2024/03/22 12:12:09;;;;;;;4.30;1.90;;;18.70;86.20;;;;;;5057400;28;20035;-79
2024/03/22 12:14:35;;;;;;;2.45;0.98;;;18.70;84.90;;;;;;5056136;28;20056;-79
2024/03/22 12:17:02;;;;;;;2.92;0.65;;;18.60;81.50;;;;;;5054621;28;20060;-78
2024/03/22 12:19:28;;;;;;;17.38;9.75;;;18.70;82.00;;;;;;5055848;28;20131;-77
2024/03/22 12:21:53;;;;;;;18.20;8.80;;;18.80;82.30;;;;;;5053055;28;20102;-78
2024/03/22 12:24:19;;;;;;;9.50;4.57;;;19.00;82.30;;;;;;5051841;28;20063;-78
2024/03/22 12:26:45;;;;;;;12.75;3.58;;;19.00;81.10;;;;;;5052246;28;20055;-78
2024/03/22 12:29:12;;;;;;;194.38;95.63;;;19.10;82.30;;;;;;5053377;28;20024;-77
2024/03/22 12:31:38;;;;;;;35.50;18.60;;;19.20;81.40;;;;;;5052315;28;20028;-78
2024/03/22 12:34:04;;;;;;;34.83;18.42;;;19.10;80.00;;;;;;5052541;28;20602;-78
2024/03/22 12:36:30;;;;;;;15.70;9.13;;;19.20;79.70;;;;;;5051147;28;20107;-77
2024/03/22 12:38:55;;;;;;;9.18;4.47;;;19.20;81.90;;;;;;5051853;28;20162;-78
2024/03/22 12:41:21;;;;;;;4.50;2.08;;;19.20;79.50;;;;;;5052216;28;20032;-78